createdAt,value
2018-05-31T00:00:06.379Z,23.59
2018-05-31T00:01:06.326Z,23.58
2018-05-31T00:02:06.272Z,23.59
2018-05-31T00:03:06.214Z,23.63
2018-05-31T00:04:06.151Z,23.62
2018-05-31T00:05:06.098Z,23.68
2018-05-31T00:06:06.043Z,23.71
2018-05-31T00:07:05.988Z,23.63
2018-05-31T00:08:05.928Z,23.68
2018-05-31T00:09:05.872Z,23.68
2018-05-31T00:10:05.811Z,23.69
2018-05-31T00:11:05.756Z,23.68
2018-05-31T00:12:05.699Z,23.55
2018-05-31T00:13:05.646Z,23.51
2018-05-31T00:14:05.589Z,23.40
2018-05-31T00:15:05.532Z,23.36
2018-05-31T00:16:05.474Z,23.47
2018-05-31T00:17:05.418Z,23.46
2018-05-31T00:18:05.359Z,23.43
2018-05-31T00:19:05.301Z,23.41
2018-05-31T00:20:05.247Z,23.21
2018-05-31T00:21:05.189Z,23.24
2018-05-31T00:22:05.132Z,23.21
2018-05-31T00:23:05.083Z,23.24
2018-05-31T00:24:05.020Z,23.25
2018-05-31T00:25:04.998Z,23.34
2018-05-31T00:26:04.909Z,23.37
2018-05-31T00:27:04.851Z,23.34
2018-05-31T00:28:04.792Z,23.32
2018-05-31T00:29:04.734Z,23.37
2018-05-31T00:30:04.677Z,23.28
2018-05-31T00:31:04.623Z,23.31
2018-05-31T00:32:04.558Z,23.31
2018-05-31T00:33:04.502Z,23.37
2018-05-31T00:34:04.470Z,23.28
2018-05-31T00:35:04.388Z,23.23
2018-05-31T00:36:04.338Z,23.23
2018-05-31T00:37:04.275Z,23.15
2018-05-31T00:38:04.221Z,23.10
2018-05-31T00:39:04.166Z,23.02
2018-05-31T00:40:04.105Z,23.13
2018-05-31T00:41:04.053Z,22.98
2018-05-31T00:42:03.991Z,22.93
2018-05-31T00:43:03.934Z,22.88
2018-05-31T00:44:03.876Z,22.85
2018-05-31T00:45:03.822Z,22.90
2018-05-31T00:46:03.766Z,23.00
2018-05-31T00:47:03.718Z,22.91
2018-05-31T00:48:03.647Z,22.93
2018-05-31T00:49:03.597Z,22.91
2018-05-31T00:50:03.532Z,23.00
2018-05-31T00:51:03.476Z,23.00
2018-05-31T00:52:03.422Z,23.06
2018-05-31T00:53:03.363Z,23.00
2018-05-31T00:54:03.306Z,23.05
2018-05-31T00:55:03.255Z,22.93
2018-05-31T00:56:03.192Z,22.98
2018-05-31T00:57:03.141Z,22.98
2018-05-31T00:58:03.078Z,22.99
2018-05-31T00:59:03.022Z,23.03
2018-05-31T01:00:02.963Z,23.02
2018-05-31T01:01:02.907Z,23.02
2018-05-31T01:02:02.847Z,22.98
2018-05-31T01:03:02.795Z,23.00
2018-05-31T01:04:02.732Z,22.85
2018-05-31T01:05:02.674Z,22.76
2018-05-31T01:06:02.623Z,22.72
2018-05-31T01:07:02.563Z,22.75
2018-05-31T01:08:02.504Z,22.72
2018-05-31T01:09:02.446Z,22.81
2018-05-31T01:10:02.389Z,22.72
2018-05-31T01:11:02.332Z,22.78
2018-05-31T01:12:02.275Z,22.83
2018-05-31T01:13:02.220Z,22.85
2018-05-31T01:14:02.158Z,22.76
2018-05-31T01:15:02.108Z,22.69
2018-05-31T01:16:02.045Z,22.73
2018-05-31T01:17:01.988Z,22.72
2018-05-31T01:18:01.934Z,22.76
2018-05-31T01:19:01.874Z,22.78
2018-05-31T01:20:01.819Z,22.70
2018-05-31T01:21:01.762Z,22.65
2018-05-31T01:22:01.704Z,22.48
2018-05-31T01:23:01.648Z,22.47
2018-05-31T01:24:01.592Z,22.60
2018-05-31T01:25:01.531Z,22.51
2018-05-31T01:26:01.471Z,22.62
2018-05-31T01:27:01.414Z,22.51
2018-05-31T01:28:01.355Z,22.53
2018-05-31T01:29:01.299Z,22.68
2018-05-31T01:30:01.247Z,22.70
2018-05-31T01:31:01.182Z,22.57
2018-05-31T01:32:01.169Z,22.53
2018-05-31T01:33:01.073Z,22.44
2018-05-31T01:34:01.014Z,22.45
2018-05-31T01:35:00.957Z,22.48
2018-05-31T01:36:00.896Z,22.51
2018-05-31T01:37:00.844Z,22.53
2018-05-31T01:38:00.784Z,22.57
2018-05-31T01:39:00.726Z,22.53
2018-05-31T01:40:00.667Z,22.51
2018-05-31T01:41:00.620Z,22.43
2018-05-31T01:42:00.557Z,22.38
2018-05-31T01:43:00.500Z,22.45
2018-05-31T01:44:00.437Z,22.57
2018-05-31T01:45:00.386Z,22.55
2018-05-31T01:46:00.322Z,22.60
2018-05-31T01:47:00.268Z,22.68
2018-05-31T01:48:00.206Z,22.66
2018-05-31T01:49:00.149Z,22.62
2018-05-31T01:50:00.096Z,22.69
2018-05-31T01:51:00.044Z,22.73
2018-05-31T01:51:59.977Z,22.76
2018-05-31T01:52:59.927Z,22.68
2018-05-31T01:53:59.864Z,22.72
2018-05-31T01:54:59.808Z,22.72
2018-05-31T01:55:59.750Z,22.51
2018-05-31T01:56:59.699Z,22.41
2018-05-31T01:57:59.632Z,22.29
2018-05-31T01:58:59.583Z,22.39
2018-05-31T01:59:59.513Z,22.43
2018-05-31T02:00:59.462Z,22.51
2018-05-31T02:01:59.406Z,22.54
2018-05-31T02:02:59.350Z,22.54
2018-05-31T02:03:59.287Z,22.68
2018-05-31T02:04:59.232Z,22.66
2018-05-31T02:05:59.172Z,22.70
2018-05-31T02:06:59.114Z,22.76
2018-05-31T02:07:59.056Z,22.84
2018-05-31T02:08:58.997Z,22.85
2018-05-31T02:09:58.942Z,22.88
2018-05-31T02:10:58.893Z,22.93
2018-05-31T02:11:58.828Z,22.90
2018-05-31T02:12:58.771Z,22.96
2018-05-31T02:13:58.714Z,22.93
2018-05-31T02:14:58.656Z,22.94
2018-05-31T02:15:58.599Z,22.84
2018-05-31T02:16:58.541Z,22.81
2018-05-31T02:17:58.482Z,22.88
2018-05-31T02:18:58.424Z,22.94
2018-05-31T02:19:58.367Z,22.90
2018-05-31T02:20:58.310Z,22.84
2018-05-31T02:21:58.252Z,22.83
2018-05-31T02:22:58.196Z,22.75
2018-05-31T02:23:58.139Z,22.78
2018-05-31T02:24:58.089Z,22.84
2018-05-31T02:25:58.025Z,22.88
2018-05-31T02:26:57.960Z,22.76
2018-05-31T02:27:57.912Z,22.88
2018-05-31T02:28:57.852Z,22.81
2018-05-31T02:29:57.793Z,22.84
2018-05-31T02:30:57.733Z,22.60
2018-05-31T02:31:57.677Z,22.75
2018-05-31T02:32:57.619Z,22.63
2018-05-31T02:33:57.568Z,22.54
2018-05-31T02:34:57.515Z,22.55
2018-05-31T02:35:57.456Z,22.63
2018-05-31T02:36:57.393Z,22.63
2018-05-31T02:37:57.332Z,22.63
2018-05-31T02:38:57.273Z,22.65
2018-05-31T02:39:57.223Z,22.62
2018-05-31T02:40:57.158Z,22.47
2018-05-31T02:41:57.111Z,22.51
2018-05-31T02:42:57.045Z,22.45
2018-05-31T02:43:56.986Z,22.48
2018-05-31T02:44:56.929Z,22.35
2018-05-31T02:45:56.875Z,22.50
2018-05-31T02:46:56.814Z,22.47
2018-05-31T02:47:56.757Z,22.47
2018-05-31T02:48:56.714Z,22.48
2018-05-31T02:49:56.642Z,22.47
2018-05-31T02:50:56.582Z,22.43
2018-05-31T02:51:56.527Z,22.35
2018-05-31T02:52:56.469Z,22.29
2018-05-31T02:53:56.416Z,22.28
2018-05-31T02:54:56.355Z,22.29
2018-05-31T02:55:56.298Z,22.29
2018-05-31T02:56:56.238Z,22.29
2018-05-31T02:57:56.180Z,22.17
2018-05-31T02:58:56.119Z,22.17
2018-05-31T02:59:56.067Z,22.22
2018-05-31T03:00:56.010Z,22.20
2018-05-31T03:01:55.950Z,22.17
2018-05-31T03:02:55.891Z,22.14
2018-05-31T03:03:55.831Z,22.20
2018-05-31T03:04:55.780Z,22.14
2018-05-31T03:05:55.724Z,22.15
2018-05-31T03:06:55.661Z,22.28
2018-05-31T03:07:55.603Z,22.26
2018-05-31T03:08:55.550Z,22.23
2018-05-31T03:09:55.484Z,22.20
2018-05-31T03:10:55.431Z,22.18
2018-05-31T03:11:55.366Z,22.23
2018-05-31T03:12:55.318Z,22.11
2018-05-31T03:13:55.256Z,22.18
2018-05-31T03:14:55.198Z,22.13
2018-05-31T03:15:55.138Z,22.18
2018-05-31T03:16:55.085Z,22.10
2018-05-31T03:17:55.026Z,22.20
2018-05-31T03:18:54.967Z,22.20
2018-05-31T03:19:54.909Z,22.23
2018-05-31T03:20:54.852Z,22.17
2018-05-31T03:21:54.790Z,22.20
2018-05-31T03:22:54.734Z,22.25
2018-05-31T03:23:54.674Z,22.11
2018-05-31T03:24:54.616Z,22.20
2018-05-31T03:25:54.565Z,22.22
2018-05-31T03:26:54.511Z,22.25
2018-05-31T03:27:54.455Z,22.25
2018-05-31T03:28:54.389Z,22.23
2018-05-31T03:29:54.334Z,22.26
2018-05-31T03:30:54.270Z,22.26
2018-05-31T03:31:54.220Z,22.25
2018-05-31T03:32:54.156Z,22.25
2018-05-31T03:33:54.097Z,22.26
2018-05-31T03:34:54.040Z,22.23
2018-05-31T03:35:53.981Z,22.28
2018-05-31T03:36:53.922Z,22.26
2018-05-31T03:37:53.867Z,22.22
2018-05-31T03:38:53.814Z,22.23
2018-05-31T03:39:53.751Z,22.22
2018-05-31T03:40:53.696Z,22.07
2018-05-31T03:41:53.633Z,22.02
2018-05-31T03:42:53.576Z,22.04
2018-05-31T03:43:53.519Z,21.98
2018-05-31T03:44:53.460Z,21.96
2018-05-31T03:45:53.405Z,21.93
2018-05-31T03:46:53.349Z,21.93
2018-05-31T03:47:53.291Z,21.96
2018-05-31T03:48:53.233Z,21.92
2018-05-31T03:49:53.173Z,21.95
2018-05-31T03:50:53.114Z,21.93
2018-05-31T03:51:53.058Z,21.91
2018-05-31T03:52:53.001Z,21.98
2018-05-31T03:53:52.940Z,22.08
2018-05-31T03:54:52.882Z,22.07
2018-05-31T03:55:52.831Z,22.02
2018-05-31T03:56:52.785Z,21.92
2018-05-31T03:57:52.711Z,21.92
2018-05-31T03:58:52.656Z,22.06
2018-05-31T03:59:52.594Z,22.04
2018-05-31T04:00:52.536Z,22.18
2018-05-31T04:01:52.483Z,22.13
2018-05-31T04:02:52.422Z,22.17
2018-05-31T04:03:52.363Z,22.14
2018-05-31T04:04:52.351Z,22.14
2018-05-31T04:05:52.248Z,22.28
2018-05-31T04:06:52.188Z,22.28
2018-05-31T04:07:52.133Z,22.26
2018-05-31T04:08:52.071Z,22.28
2018-05-31T04:09:52.017Z,22.26
2018-05-31T04:10:51.957Z,22.36
2018-05-31T04:11:51.900Z,22.35
2018-05-31T04:12:51.847Z,22.41
2018-05-31T04:13:51.780Z,22.36
2018-05-31T04:14:51.723Z,22.43
2018-05-31T04:15:51.668Z,22.38
2018-05-31T04:16:51.615Z,22.48
2018-05-31T04:17:51.557Z,22.47
2018-05-31T04:18:51.493Z,22.53
2018-05-31T04:19:51.436Z,22.38
2018-05-31T04:20:51.378Z,22.38
2018-05-31T04:21:51.321Z,22.35
2018-05-31T04:22:51.264Z,22.38
2018-05-31T04:23:51.211Z,22.36
2018-05-31T04:24:51.150Z,22.44
2018-05-31T04:25:51.091Z,22.45
2018-05-31T04:26:51.031Z,22.43
2018-05-31T04:27:50.974Z,22.45
2018-05-31T04:28:50.914Z,22.45
2018-05-31T04:29:50.862Z,22.30
2018-05-31T04:30:50.801Z,22.41
2018-05-31T04:31:50.744Z,22.45
2018-05-31T04:32:50.685Z,22.36
2018-05-31T04:33:50.629Z,22.45
2018-05-31T04:34:50.577Z,22.51
2018-05-31T04:35:50.518Z,22.43
2018-05-31T04:36:50.456Z,22.68
2018-05-31T04:37:50.399Z,22.55
2018-05-31T04:38:50.340Z,22.59
2018-05-31T04:39:50.283Z,22.57
2018-05-31T04:40:50.236Z,22.57
2018-05-31T04:41:50.170Z,22.53
2018-05-31T04:42:50.112Z,22.63
2018-05-31T04:43:50.049Z,22.69
2018-05-31T04:44:49.998Z,22.63
2018-05-31T04:45:49.936Z,22.75
2018-05-31T04:46:49.877Z,22.53
2018-05-31T04:47:49.820Z,22.47
2018-05-31T04:48:49.762Z,22.50
2018-05-31T04:49:49.707Z,22.51
2018-05-31T04:50:49.649Z,22.59
2018-05-31T04:51:49.603Z,22.68
2018-05-31T04:52:49.537Z,22.70
2018-05-31T04:53:49.477Z,22.76
2018-05-31T04:54:49.419Z,22.76
2018-05-31T04:55:49.361Z,22.78
2018-05-31T04:56:49.306Z,22.96
2018-05-31T04:57:49.246Z,23.24
2018-05-31T04:58:49.189Z,23.36
2018-05-31T04:59:49.131Z,23.31
2018-05-31T05:00:49.074Z,23.46
2018-05-31T05:01:49.020Z,23.63
2018-05-31T05:02:48.966Z,24.20
2018-05-31T05:03:48.904Z,24.78
2018-05-31T05:04:48.855Z,25.31
2018-05-31T05:05:48.787Z,25.60
2018-05-31T05:06:48.728Z,25.81
2018-05-31T05:07:48.673Z,25.99
2018-05-31T05:08:48.619Z,25.98
2018-05-31T05:09:48.558Z,25.72
2018-05-31T05:10:48.500Z,25.33
2018-05-31T05:11:48.442Z,24.89
2018-05-31T05:12:48.385Z,24.69
2018-05-31T05:13:48.331Z,24.50
2018-05-31T05:14:48.280Z,24.50
2018-05-31T05:15:48.222Z,24.50
2018-05-31T05:16:48.166Z,24.54
2018-05-31T05:17:48.099Z,24.54
2018-05-31T05:18:48.053Z,24.58
2018-05-31T05:19:47.989Z,24.32
2018-05-31T05:20:47.933Z,24.21
2018-05-31T05:21:47.877Z,24.20
2018-05-31T05:22:47.821Z,24.18
2018-05-31T05:23:47.760Z,24.26
2018-05-31T05:24:47.706Z,24.20
2018-05-31T05:25:47.652Z,24.08
2018-05-31T05:26:47.597Z,24.08
2018-05-31T05:27:47.537Z,24.14
2018-05-31T05:28:47.482Z,24.20
2018-05-31T05:29:47.425Z,24.13
2018-05-31T05:30:47.368Z,24.11
2018-05-31T05:31:47.312Z,24.03
2018-05-31T05:32:47.262Z,23.98
2018-05-31T05:33:47.201Z,24.03
2018-05-31T05:34:47.145Z,24.03
2018-05-31T05:35:47.092Z,24.08
2018-05-31T05:36:47.035Z,24.16
2018-05-31T05:37:46.981Z,24.08
2018-05-31T05:38:46.920Z,24.16
2018-05-31T05:39:46.863Z,24.17
2018-05-31T05:40:46.810Z,24.14
2018-05-31T05:41:46.750Z,24.06
2018-05-31T05:42:46.694Z,24.10
2018-05-31T05:43:46.637Z,24.08
2018-05-31T05:44:46.579Z,24.21
2018-05-31T05:45:46.527Z,24.06
2018-05-31T05:46:46.467Z,24.21
2018-05-31T05:47:46.414Z,24.26
2018-05-31T05:48:46.362Z,24.28
2018-05-31T05:49:46.300Z,24.17
2018-05-31T05:50:46.245Z,24.18
2018-05-31T05:51:46.182Z,24.30
2018-05-31T05:52:46.132Z,24.35
2018-05-31T05:53:46.078Z,24.33
2018-05-31T05:54:46.022Z,24.47
2018-05-31T05:55:45.967Z,24.40
2018-05-31T05:56:45.904Z,24.45
2018-05-31T05:57:45.852Z,24.53
2018-05-31T05:58:45.800Z,24.61
2018-05-31T05:59:45.742Z,24.54
2018-05-31T06:00:45.686Z,24.55
2018-05-31T06:01:45.639Z,24.65
2018-05-31T06:02:45.569Z,24.65
2018-05-31T06:03:45.514Z,24.68
2018-05-31T06:04:45.456Z,24.73
2018-05-31T06:05:45.400Z,24.77
2018-05-31T06:06:45.351Z,24.85
2018-05-31T06:07:45.292Z,24.81
2018-05-31T06:08:45.240Z,24.88
2018-05-31T06:09:45.178Z,24.96
2018-05-31T06:10:45.118Z,24.99
2018-05-31T06:11:45.066Z,24.98
2018-05-31T06:12:45.016Z,25.04
2018-05-31T06:13:44.955Z,25.03
2018-05-31T06:14:44.898Z,25.06
2018-05-31T06:15:44.840Z,25.11
2018-05-31T06:16:44.786Z,25.21
2018-05-31T06:17:44.731Z,25.22
2018-05-31T06:18:44.672Z,25.23
2018-05-31T06:19:44.638Z,25.28
2018-05-31T06:20:44.563Z,25.25
2018-05-31T06:21:44.509Z,25.32
2018-05-31T06:22:44.448Z,25.40
2018-05-31T06:23:44.397Z,25.44
2018-05-31T06:24:44.339Z,25.44
2018-05-31T06:25:44.286Z,25.48
2018-05-31T06:26:44.235Z,25.48
2018-05-31T06:27:44.175Z,25.46
2018-05-31T06:28:44.116Z,25.44
2018-05-31T06:29:44.072Z,25.47
2018-05-31T06:30:44.007Z,25.47
2018-05-31T06:31:43.950Z,25.55
2018-05-31T06:32:43.897Z,25.53
2018-05-31T06:33:43.841Z,25.66
2018-05-31T06:34:43.780Z,25.68
2018-05-31T06:35:43.727Z,25.66
2018-05-31T06:36:43.668Z,25.60
2018-05-31T06:37:43.619Z,25.58
2018-05-31T06:38:43.563Z,25.66
2018-05-31T06:39:43.508Z,25.69
2018-05-31T06:40:43.456Z,25.75
2018-05-31T06:41:43.394Z,25.72
2018-05-31T06:42:43.339Z,25.78
2018-05-31T06:43:43.301Z,25.75
2018-05-31T06:44:43.231Z,25.78
2018-05-31T06:45:43.175Z,25.81
2018-05-31T06:46:43.118Z,25.73
2018-05-31T06:47:43.063Z,25.78
2018-05-31T06:48:43.006Z,25.78
2018-05-31T06:49:42.957Z,25.75
2018-05-31T06:50:42.901Z,25.81
2018-05-31T06:51:42.857Z,25.83
2018-05-31T06:52:42.790Z,25.87
2018-05-31T06:53:42.732Z,25.88
2018-05-31T06:54:42.681Z,25.98
2018-05-31T06:55:42.628Z,26.05
2018-05-31T06:56:42.568Z,25.99
2018-05-31T06:57:42.514Z,26.10
2018-05-31T06:58:42.459Z,26.23
2018-05-31T06:59:42.408Z,26.26
2018-05-31T07:00:42.357Z,26.25
2018-05-31T07:01:42.296Z,26.25
2018-05-31T07:02:42.246Z,26.22
2018-05-31T07:03:42.185Z,26.31
2018-05-31T07:04:42.139Z,26.37
2018-05-31T07:05:42.082Z,26.38
2018-05-31T07:06:42.047Z,26.40
2018-05-31T07:07:41.965Z,26.43
2018-05-31T07:08:41.912Z,26.37
2018-05-31T07:09:41.859Z,26.44
2018-05-31T07:10:41.804Z,26.47
2018-05-31T07:11:41.746Z,26.48
2018-05-31T07:12:41.694Z,26.45
2018-05-31T07:13:41.637Z,26.36
2018-05-31T07:14:41.580Z,26.47
2018-05-31T07:15:41.527Z,26.48
2018-05-31T07:16:41.475Z,26.59
2018-05-31T07:17:41.419Z,26.55
2018-05-31T07:18:41.363Z,26.48
2018-05-31T07:19:41.317Z,26.55
2018-05-31T07:20:41.254Z,26.59
2018-05-31T07:21:41.228Z,26.62
2018-05-31T07:22:41.147Z,26.62
2018-05-31T07:23:41.105Z,26.68
2018-05-31T07:24:41.040Z,26.70
2018-05-31T07:25:40.983Z,26.71
2018-05-31T07:26:40.927Z,26.78
2018-05-31T07:27:40.885Z,26.80
2018-05-31T07:28:40.818Z,26.74
2018-05-31T07:29:40.769Z,26.78
2018-05-31T07:30:40.710Z,26.88
2018-05-31T07:31:40.653Z,26.73
2018-05-31T07:32:40.600Z,26.80
2018-05-31T07:33:40.555Z,26.77
2018-05-31T07:34:40.493Z,26.84
2018-05-31T07:35:40.439Z,26.80
2018-05-31T07:36:40.400Z,26.97
2018-05-31T07:37:40.329Z,26.93
2018-05-31T07:38:40.276Z,26.84
2018-05-31T07:39:40.221Z,26.83
2018-05-31T07:40:40.165Z,26.95
2018-05-31T07:41:40.111Z,27.03
2018-05-31T07:42:40.057Z,27.07
2018-05-31T07:43:40.011Z,27.07
2018-05-31T07:44:39.950Z,27.14
2018-05-31T07:45:39.895Z,27.25
2018-05-31T07:46:39.839Z,27.21
2018-05-31T07:47:39.788Z,27.20
2018-05-31T07:48:39.734Z,27.21
2018-05-31T07:49:39.677Z,27.25
2018-05-31T07:50:39.633Z,27.26
2018-05-31T07:51:39.569Z,27.25
2018-05-31T07:52:39.516Z,27.25
2018-05-31T07:53:39.464Z,27.32
2018-05-31T07:54:39.407Z,27.37
2018-05-31T07:55:39.359Z,27.30
2018-05-31T07:56:39.324Z,27.42
2018-05-31T07:57:39.245Z,27.48
2018-05-31T07:58:39.192Z,27.47
2018-05-31T07:59:39.135Z,27.44
2018-05-31T08:00:39.085Z,27.44
2018-05-31T08:01:39.036Z,27.47
2018-05-31T08:02:38.977Z,27.52
2018-05-31T08:03:38.921Z,27.39
2018-05-31T08:04:38.870Z,27.52
2018-05-31T08:05:38.852Z,27.54
2018-05-31T08:06:38.763Z,27.48
2018-05-31T08:07:38.708Z,27.54
2018-05-31T08:08:38.654Z,27.54
2018-05-31T08:09:38.599Z,27.64
2018-05-31T08:10:38.542Z,27.67
2018-05-31T08:11:38.495Z,27.68
2018-05-31T08:12:38.433Z,27.64
2018-05-31T08:13:38.386Z,27.68
2018-05-31T08:14:38.337Z,27.70
2018-05-31T08:15:38.278Z,27.65
2018-05-31T08:16:38.223Z,27.77
2018-05-31T08:17:38.169Z,27.73
2018-05-31T08:18:38.118Z,27.74
2018-05-31T08:19:38.063Z,27.68
2018-05-31T08:20:38.016Z,27.74
2018-05-31T08:21:37.955Z,27.75
2018-05-31T08:22:37.901Z,27.83
2018-05-31T08:23:37.853Z,27.82
2018-05-31T08:24:37.795Z,27.82
2018-05-31T08:25:37.745Z,27.82
2018-05-31T08:26:37.688Z,27.83
2018-05-31T08:27:37.635Z,27.87
2018-05-31T08:28:37.582Z,27.89
2018-05-31T08:29:37.546Z,27.95
2018-05-31T08:30:37.472Z,28.02
2018-05-31T08:31:37.473Z,28.01
2018-05-31T08:32:37.364Z,28.01
2018-05-31T08:33:37.319Z,28.00
2018-05-31T08:34:37.259Z,28.05
2018-05-31T08:35:37.204Z,28.15
2018-05-31T08:36:37.150Z,28.12
2018-05-31T08:37:37.100Z,28.07
2018-05-31T08:38:37.049Z,28.10
2018-05-31T08:39:36.993Z,28.15
2018-05-31T08:40:36.947Z,28.15
2018-05-31T08:41:36.881Z,28.20
2018-05-31T08:42:36.830Z,28.25
2018-05-31T08:43:36.777Z,28.23
2018-05-31T08:44:36.756Z,28.20
2018-05-31T08:45:36.678Z,28.23
2018-05-31T08:46:36.616Z,28.22
2018-05-31T08:47:36.566Z,28.27
2018-05-31T08:48:36.512Z,28.19
2018-05-31T08:49:36.455Z,28.29
2018-05-31T08:50:36.400Z,28.22
2018-05-31T08:51:36.355Z,28.27
2018-05-31T08:52:36.299Z,28.25
2018-05-31T08:53:36.247Z,28.26
2018-05-31T08:54:36.189Z,28.32
2018-05-31T08:55:36.136Z,28.32
2018-05-31T08:56:36.082Z,28.37
2018-05-31T08:57:36.035Z,28.35
2018-05-31T08:58:35.978Z,28.29
2018-05-31T08:59:35.927Z,28.37
2018-05-31T09:00:35.871Z,28.38
2018-05-31T09:01:35.819Z,28.51
2018-05-31T09:02:35.762Z,28.57
2018-05-31T09:03:35.708Z,28.39
2018-05-31T09:04:35.657Z,28.42
2018-05-31T09:05:35.620Z,28.48
2018-05-31T09:06:35.551Z,28.39
2018-05-31T09:07:35.497Z,28.44
2018-05-31T09:08:35.444Z,28.38
2018-05-31T09:09:35.393Z,28.39
2018-05-31T09:10:35.340Z,28.42
2018-05-31T09:11:35.287Z,28.49
2018-05-31T09:12:35.241Z,28.48
2018-05-31T09:13:35.180Z,28.54
2018-05-31T09:14:35.128Z,28.52
2018-05-31T09:15:35.072Z,28.48
2018-05-31T09:16:35.032Z,28.49
2018-05-31T09:17:34.971Z,28.52
2018-05-31T09:18:34.915Z,28.54
2018-05-31T09:19:34.863Z,28.54
2018-05-31T09:20:34.817Z,28.60
2018-05-31T09:21:34.753Z,28.62
2018-05-31T09:22:34.698Z,28.63
2018-05-31T09:23:34.651Z,28.57
2018-05-31T09:24:34.598Z,28.64
2018-05-31T09:25:34.540Z,28.62
2018-05-31T09:26:34.503Z,28.57
2018-05-31T09:27:34.433Z,28.67
2018-05-31T09:28:34.388Z,28.60
2018-05-31T09:29:34.330Z,28.67
2018-05-31T09:30:34.279Z,28.64
2018-05-31T09:31:34.223Z,28.67
2018-05-31T09:32:34.170Z,28.79
2018-05-31T09:33:34.117Z,28.81
2018-05-31T09:34:34.063Z,28.84
2018-05-31T09:35:34.009Z,28.78
2018-05-31T09:36:33.956Z,28.67
2018-05-31T09:37:33.906Z,28.79
2018-05-31T09:38:33.858Z,28.84
2018-05-31T09:39:33.797Z,28.82
2018-05-31T09:40:33.744Z,28.72
2018-05-31T09:41:33.695Z,28.79
2018-05-31T09:42:33.640Z,28.78
2018-05-31T09:43:33.587Z,28.86
2018-05-31T09:44:33.538Z,28.84
2018-05-31T09:45:33.481Z,29.04
2018-05-31T09:46:33.448Z,29.12
2018-05-31T09:47:33.373Z,29.10
2018-05-31T09:48:33.328Z,29.22
2018-05-31T09:49:33.270Z,29.17
2018-05-31T09:50:33.218Z,29.14
2018-05-31T09:51:33.165Z,29.10
2018-05-31T09:52:33.110Z,29.14
2018-05-31T09:53:33.061Z,29.16
2018-05-31T09:54:33.005Z,29.19
2018-05-31T09:55:32.956Z,29.23
2018-05-31T09:56:32.908Z,29.13
2018-05-31T09:57:32.845Z,29.22
2018-05-31T09:58:32.792Z,29.19
2018-05-31T09:59:32.741Z,29.24
2018-05-31T10:00:32.695Z,29.24
2018-05-31T10:01:32.636Z,29.16
2018-05-31T10:02:32.586Z,29.29
2018-05-31T10:03:32.535Z,29.29
2018-05-31T10:04:32.479Z,29.35
2018-05-31T10:05:32.424Z,29.31
2018-05-31T10:06:32.375Z,29.27
2018-05-31T10:07:32.324Z,29.22
2018-05-31T10:08:32.268Z,29.32
2018-05-31T10:09:32.221Z,29.32
2018-05-31T10:10:32.162Z,29.39
2018-05-31T10:11:32.108Z,29.34
2018-05-31T10:12:32.057Z,29.27
2018-05-31T10:13:32.006Z,29.32
2018-05-31T10:14:31.956Z,29.38
2018-05-31T10:15:31.905Z,29.34
2018-05-31T10:16:31.849Z,29.27
2018-05-31T10:17:31.798Z,29.26
2018-05-31T10:18:31.741Z,29.22
2018-05-31T10:19:31.695Z,29.35
2018-05-31T10:20:31.639Z,29.34
2018-05-31T10:21:31.587Z,29.38
2018-05-31T10:22:31.531Z,29.42
2018-05-31T10:23:31.479Z,29.32
2018-05-31T10:24:31.438Z,29.39
2018-05-31T10:25:31.382Z,29.51
2018-05-31T10:26:31.323Z,29.54
2018-05-31T10:27:31.268Z,29.56
2018-05-31T10:28:31.220Z,29.61
2018-05-31T10:29:31.172Z,29.54
2018-05-31T10:30:31.115Z,29.61
2018-05-31T10:31:31.065Z,29.63
2018-05-31T10:32:31.013Z,29.60
2018-05-31T10:33:30.956Z,29.65
2018-05-31T10:34:30.901Z,29.63
2018-05-31T10:35:30.856Z,29.60
2018-05-31T10:36:30.797Z,29.66
2018-05-31T10:37:30.746Z,29.61
2018-05-31T10:38:30.695Z,29.54
2018-05-31T10:39:30.646Z,29.60
2018-05-31T10:40:30.591Z,29.68
2018-05-31T10:41:30.537Z,29.75
2018-05-31T10:42:30.484Z,29.78
2018-05-31T10:43:30.434Z,29.78
2018-05-31T10:44:30.382Z,29.75
2018-05-31T10:45:30.331Z,29.72
2018-05-31T10:46:30.290Z,29.84
2018-05-31T10:47:30.224Z,29.94
2018-05-31T10:48:30.175Z,29.97
2018-05-31T10:49:30.119Z,30.00
2018-05-31T10:50:30.069Z,30.00
2018-05-31T10:51:30.016Z,29.97
2018-05-31T10:52:29.968Z,30.00
2018-05-31T10:53:29.914Z,30.00
2018-05-31T10:54:29.861Z,30.10
2018-05-31T10:55:29.807Z,29.98
2018-05-31T10:56:29.752Z,29.97
2018-05-31T10:57:29.714Z,30.10
2018-05-31T10:58:29.652Z,30.28
2018-05-31T10:59:29.599Z,30.24
2018-05-31T11:00:29.546Z,30.25
2018-05-31T11:01:29.500Z,30.27
2018-05-31T11:02:29.446Z,30.44
2018-05-31T11:03:29.396Z,30.50
2018-05-31T11:04:29.353Z,30.51
2018-05-31T11:05:29.288Z,30.68
2018-05-31T11:06:29.237Z,30.62
2018-05-31T11:07:29.185Z,30.63
2018-05-31T11:08:29.136Z,30.66
2018-05-31T11:09:29.089Z,30.72
2018-05-31T11:10:29.031Z,30.77
2018-05-31T11:11:28.985Z,30.90
2018-05-31T11:12:28.933Z,30.88
2018-05-31T11:13:28.883Z,30.94
2018-05-31T11:14:28.833Z,30.94
2018-05-31T11:15:28.784Z,30.94
2018-05-31T11:16:28.741Z,31.03
2018-05-31T11:17:28.684Z,31.03
2018-05-31T11:18:28.644Z,31.02
2018-05-31T11:19:28.587Z,31.25
2018-05-31T11:20:28.541Z,31.29
2018-05-31T11:21:28.504Z,31.40
2018-05-31T11:22:28.444Z,31.42
2018-05-31T11:23:28.409Z,31.52
2018-05-31T11:24:28.352Z,31.55
2018-05-31T11:25:28.302Z,31.71
2018-05-31T11:26:28.250Z,31.92
2018-05-31T11:27:28.206Z,32.00
2018-05-31T11:28:28.158Z,32.01
2018-05-31T11:29:28.115Z,31.96
2018-05-31T11:30:28.068Z,31.96
2018-05-31T11:31:28.021Z,32.04
2018-05-31T11:32:27.975Z,32.18
2018-05-31T11:33:27.928Z,32.18
2018-05-31T11:34:27.888Z,32.27
2018-05-31T11:35:27.840Z,32.19
2018-05-31T11:36:27.803Z,32.38
2018-05-31T11:37:27.754Z,32.31
2018-05-31T11:38:27.707Z,32.40
2018-05-31T11:39:27.664Z,32.38
2018-05-31T11:40:27.622Z,32.33
2018-05-31T11:41:27.602Z,32.46
2018-05-31T11:42:27.537Z,32.74
2018-05-31T11:43:27.495Z,32.82
2018-05-31T11:44:27.452Z,33.01
2018-05-31T11:45:27.407Z,33.08
2018-05-31T11:46:27.365Z,33.08
2018-05-31T11:47:27.327Z,33.09
2018-05-31T11:48:27.285Z,32.89
2018-05-31T11:49:27.236Z,33.20
2018-05-31T11:50:27.197Z,33.14
2018-05-31T11:51:27.190Z,33.12
2018-05-31T11:52:27.116Z,33.34
2018-05-31T11:53:27.083Z,33.40
2018-05-31T11:54:27.035Z,33.58
2018-05-31T11:55:26.996Z,33.83
2018-05-31T11:56:26.983Z,33.96
2018-05-31T11:57:26.911Z,33.94
2018-05-31T11:58:26.868Z,33.87
2018-05-31T11:59:26.829Z,33.89
2018-05-31T12:00:26.802Z,33.94
2018-05-31T12:01:26.755Z,33.95
2018-05-31T12:02:26.710Z,34.23
2018-05-31T12:03:26.668Z,34.21
2018-05-31T12:04:26.626Z,34.52
2018-05-31T12:05:26.590Z,34.67
2018-05-31T12:06:26.602Z,34.86
2018-05-31T12:07:26.511Z,34.93
2018-05-31T12:08:26.476Z,35.08
2018-05-31T12:09:26.427Z,35.12
2018-05-31T12:10:26.389Z,35.33
2018-05-31T12:11:26.351Z,35.26
2018-05-31T12:12:26.326Z,35.46
2018-05-31T12:13:26.275Z,35.39
2018-05-31T12:14:26.241Z,35.23
2018-05-31T12:15:26.195Z,35.34
2018-05-31T12:16:26.167Z,35.27
2018-05-31T12:17:26.156Z,35.34
2018-05-31T12:18:26.082Z,35.41
2018-05-31T12:19:26.052Z,35.42
2018-05-31T12:20:26.007Z,35.63
2018-05-31T12:21:25.966Z,35.73
2018-05-31T12:22:25.924Z,36.20
2018-05-31T12:23:25.886Z,36.40
2018-05-31T12:24:25.844Z,36.33
2018-05-31T12:25:25.827Z,36.09
2018-05-31T12:26:25.778Z,36.05
2018-05-31T12:27:25.737Z,36.24
2018-05-31T12:28:25.701Z,36.28
2018-05-31T12:29:25.659Z,36.23
2018-05-31T12:30:25.622Z,36.27
2018-05-31T12:31:25.584Z,36.28
2018-05-31T12:32:25.546Z,36.35
2018-05-31T12:33:25.522Z,36.55
2018-05-31T12:34:25.476Z,36.73
2018-05-31T12:35:25.434Z,36.77
2018-05-31T12:36:25.398Z,37.01
2018-05-31T12:37:25.365Z,37.18
2018-05-31T12:38:25.324Z,37.44
2018-05-31T12:39:25.290Z,37.44
2018-05-31T12:40:25.251Z,37.63
2018-05-31T12:41:25.212Z,37.89
2018-05-31T12:42:25.174Z,37.99
2018-05-31T12:43:25.138Z,38.34
2018-05-31T12:44:25.101Z,38.48
2018-05-31T12:45:25.064Z,38.48
2018-05-31T12:46:25.034Z,38.15
2018-05-31T12:47:24.993Z,38.08
2018-05-31T12:48:24.955Z,38.26
2018-05-31T12:49:24.918Z,38.50
2018-05-31T12:50:24.884Z,38.30
2018-05-31T12:51:24.847Z,38.42